Lost River, Indiana
Current Conditions -  °F | °C
As of 3:35 AM on Monday 24 Nov 2014 (Local Time) from KHNB Reporting Station
Overcast Overcast  
Wind Chill: 59°   Ceiling: 1600
Heat Index: 59°   Visibility: 10mi
Dew Point: 55°   Wind: 21mph
Humidity: 88%   Direction: 190°S
Pressure: 29.3"   Gusts: 28mph
Location:  38.4941°N, 86.6155°W
Report Text: KHNB 240835Z AUTO 19018G24KT 10SM BKN016 BKN024 OVC031 15/13 A2930 RMK AO1
Loading
Personal Weather Stations






























Interactive Weather Map New forecast layout! Learn more

10-Day Weather Forecast

Advertisements
Track Severe Weather on mobile